createdAt,value
2017-06-12T00:00:02.809Z,18.35
2017-06-12T00:10:02.360Z,18.62
2017-06-12T00:20:02.392Z,18.79
2017-06-12T00:30:02.898Z,18.69
2017-06-12T00:40:02.419Z,18.58
2017-06-12T00:50:02.380Z,18.46
2017-06-12T01:00:02.857Z,18.34
2017-06-12T01:10:02.346Z,18.22
2017-06-12T01:20:02.323Z,18.07
2017-06-12T01:30:02.855Z,17.91
2017-06-12T01:40:02.324Z,17.91
2017-06-12T01:50:02.190Z,17.91
2017-06-12T02:00:02.624Z,17.82
2017-06-12T02:10:03.065Z,17.66
2017-06-12T02:20:03.105Z,17.47
2017-06-12T02:30:02.570Z,17.43
2017-06-12T02:40:03.070Z,17.46
2017-06-12T02:50:02.894Z,17.39
2017-06-12T03:00:02.353Z,17.19
2017-06-12T03:10:02.726Z,17.15
2017-06-12T03:20:02.835Z,17.24
2017-06-12T03:30:02.311Z,17.35
2017-06-12T03:40:02.792Z,17.22
2017-06-12T03:50:02.632Z,17.09
2017-06-12T04:00:03.119Z,16.99
2017-06-12T04:10:02.635Z,16.88
2017-06-12T04:20:02.707Z,16.78
2017-06-12T04:30:02.191Z,16.67
2017-06-12T04:40:02.683Z,16.57
2017-06-12T04:50:02.309Z,16.51
2017-06-12T05:00:02.782Z,16.49
2017-06-12T05:10:02.259Z,16.47
2017-06-12T05:20:02.604Z,16.47
2017-06-12T05:30:03.097Z,16.47
2017-06-12T05:40:02.559Z,16.51
2017-06-12T05:50:02.429Z,16.5
2017-06-12T06:00:02.885Z,16.55
2017-06-12T06:10:02.387Z,16.7
2017-06-12T06:20:02.459Z,16.82
2017-06-12T06:30:02.924Z,16.9
2017-06-12T06:40:02.384Z,17.01
2017-06-12T06:50:02.242Z,17.77
2017-06-12T07:00:02.693Z,18.63
2017-06-12T07:10:02.147Z,19.24
2017-06-12T07:20:02.160Z,19.47
2017-06-12T07:30:02.655Z,19.02
2017-06-12T07:40:03.091Z,19.16
2017-06-12T07:50:02.969Z,19.22
2017-06-12T08:00:02.427Z,20.51
2017-06-12T08:10:02.918Z,20.64
2017-06-12T08:20:02.892Z,19.61
2017-06-12T08:30:02.373Z,19.92
2017-06-12T08:40:02.891Z,19.01
2017-06-12T08:50:02.756Z,19
2017-06-12T09:00:02.256Z,20.04
2017-06-12T09:10:02.709Z,19.73
2017-06-12T09:20:02.692Z,19.83
2017-06-12T09:30:02.149Z,20.19
2017-06-12T09:40:02.635Z,19.97
2017-06-12T09:50:02.531Z,18.86
2017-06-12T10:00:02.943Z,18.48
2017-06-12T10:10:02.520Z,18.42
2017-06-12T10:20:02.608Z,19.29
2017-06-12T10:30:03.068Z,19.01
2017-06-12T10:40:02.540Z,18.41
2017-06-12T10:50:02.432Z,18.53
2017-06-12T11:00:02.926Z,18.86
2017-06-12T11:10:02.444Z,18.41
2017-06-12T11:20:02.522Z,18.56
2017-06-12T11:30:03.132Z,18.98
2017-06-12T11:40:02.595Z,18.88
2017-06-12T11:50:02.592Z,18.79
2017-06-12T12:00:03.059Z,18.56
2017-06-12T12:10:02.511Z,18.72
2017-06-12T12:20:02.552Z,19
2017-06-12T12:30:02.998Z,18.4
2017-06-12T12:40:02.432Z,18.05
2017-06-12T12:50:02.353Z,17.99
2017-06-12T13:00:02.837Z,17.77
2017-06-12T13:10:02.338Z,18.04
2017-06-12T13:20:02.389Z,18.32
2017-06-12T13:30:02.860Z,17.95
2017-06-12T13:40:02.348Z,17.38
2017-06-12T13:50:02.277Z,17.46
2017-06-12T14:00:02.770Z,18
2017-06-12T14:10:02.263Z,17.91
2017-06-12T14:20:02.277Z,17.75
2017-06-12T14:30:02.777Z,18.06
2017-06-12T14:40:02.272Z,18.14
2017-06-12T14:50:03.093Z,17.69
2017-06-12T15:00:02.541Z,17.9
2017-06-12T15:10:03.032Z,18.27
2017-06-12T15:20:03.129Z,18.51
2017-06-12T15:30:02.612Z,18.48
2017-06-12T15:40:03.100Z,18.52
2017-06-12T15:50:02.923Z,18.53
2017-06-12T16:00:02.379Z,18.35
2017-06-12T16:10:02.959Z,18.19
2017-06-12T16:20:03.002Z,18.05
2017-06-12T16:30:02.506Z,17.88
2017-06-12T16:40:02.993Z,17.95
2017-06-12T16:50:02.838Z,18.03
2017-06-12T17:00:02.332Z,17.91
2017-06-12T17:10:02.860Z,17.74
2017-06-12T17:20:02.911Z,17.7
2017-06-12T17:30:02.399Z,17.68
2017-06-12T17:40:02.892Z,17.64
2017-06-12T17:50:02.713Z,17.5
2017-06-12T18:00:02.309Z,17.33
2017-06-12T18:10:02.861Z,17.24
2017-06-12T18:20:02.955Z,17.24
2017-06-12T18:30:02.459Z,17.18
2017-06-12T18:40:02.933Z,17.09
2017-06-12T18:50:02.815Z,17.03
2017-06-12T19:00:02.291Z,16.94
2017-06-12T19:10:02.794Z,16.85
2017-06-12T19:20:02.886Z,16.75
2017-06-12T19:30:02.325Z,16.66
2017-06-12T19:40:02.824Z,16.56
2017-06-12T19:50:02.615Z,16.43
2017-06-12T20:00:03.060Z,16.32
2017-06-12T20:10:02.531Z,16.27
2017-06-12T20:20:02.936Z,16.2
2017-06-12T20:30:02.418Z,16.14
2017-06-12T20:40:02.890Z,16.07
2017-06-12T20:50:02.868Z,15.99
2017-06-12T21:00:02.309Z,15.9
2017-06-12T21:10:02.776Z,15.87
2017-06-12T21:20:02.894Z,15.81
2017-06-12T21:30:02.355Z,15.76
2017-06-12T21:40:02.935Z,15.69
2017-06-12T21:50:02.808Z,15.61
2017-06-12T22:00:02.333Z,15.57
2017-06-12T22:10:02.825Z,15.53
2017-06-12T22:20:02.174Z,15.49
2017-06-12T22:30:02.669Z,15.45
2017-06-12T22:40:03.150Z,15.44
2017-06-12T22:50:03.035Z,15.46
2017-06-12T23:00:02.513Z,15.44
2017-06-12T23:10:02.967Z,15.4
2017-06-12T23:20:03.088Z,15.38
2017-06-12T23:30:02.537Z,15.34
2017-06-12T23:40:03.064Z,15.32
2017-06-12T23:50:02.934Z,15.28
